Daniel — PC7424 — position and weather

sailwx.info

Track history (hours):
 
Tides and Currents Weather Stations Pressure Air Temp Water Temp Dewpoint Dewpoint Depression Visibility Wind Speed Wind Dir Waves Ship Positions

Daniel

Last reported at 2017-Nov-08 16:45 UTC. Time now 2017-Nov-24 02:14 UTC.
Position N 27°50' W 015°14'.
Warning: this ship's position is 15 days out of date.

Length 15 m.

Type: Pleasure craft. MMSI: 244060727.

Date/timePositionNaut miles runAvg speedWind from/ knotsBaromVisibWave heightAir tempDewpointWater temp
2017-Nov-08 16:45N 27°50' W 015°14'2 6.0
2017-Nov-08 16:25N 27°50' W 015°11'3 6.1
2017-Nov-08 15:57N 27°51' W 015°08'3 6.3
2017-Nov-08 15:27N 27°52' W 015°05'3 6.3
2017-Nov-08 14:56N 27°54' W 015°02'3 6.2
2017-Nov-08 14:27N 27°55' W 014°58'3 6.5
2017-Nov-08 13:55N 27°56' W 014°55'3 6.5
2017-Nov-08 13:26N 27°57' W 014°51'3 5.9
2017-Nov-08 12:56N 27°58' W 014°48'3 6.2
2017-Nov-08 12:26N 27°59' W 014°45'3 5.7
2017-Nov-08 11:54N 27°60' W 014°42'3 5.9
2017-Nov-08 11:24N 28°01' W 014°38'  
2017-Nov-04 07:41N 28°48' W 013°27'2 7.2
2017-Nov-04 07:26N 28°50' W 013°27'3 7.1
2017-Nov-04 06:59N 28°53' W 013°29'3 7.1
2017-Nov-04 06:30N 28°56' W 013°31'2 4.8
2017-Nov-04 06:00N 28°58' W 013°32'0 0.1
2017-Nov-04 05:21N 28°58' W 013°32'0 0.0
2017-Nov-04 04:39N 28°58' W 013°32'0 0.0
2017-Nov-04 04:30N 28°58' W 013°32'0 0.0
2017-Nov-04 03:57N 28°58' W 013°32'0 0.0
2017-Nov-04 03:15N 28°58' W 013°32'0 0.0
2017-Nov-04 02:57N 28°58' W 013°32'0 0.0
2017-Nov-04 02:27N 28°58' W 013°32'0 0.0
2017-Nov-04 01:57N 28°58' W 013°32'0 0.0
2017-Nov-04 00:18N 28°58' W 013°32'0 0.0
2017-Nov-03 23:57N 28°58' W 013°32'0 0.0
2017-Nov-03 23:21N 28°58' W 013°32'0 0.0
2017-Nov-03 22:51N 28°58' W 013°32'0 0.0
2017-Nov-03 22:27N 28°58' W 013°32'0 0.0
2017-Nov-03 21:57N 28°58' W 013°32'0 0.0
2017-Nov-03 21:27N 28°58' W 013°32'0 0.0
2017-Nov-03 20:45N 28°58' W 013°32'0 0.0
2017-Nov-03 20:24N 28°58' W 013°32'0 0.0
2017-Nov-03 19:39N 28°58' W 013°32'0 0.0
2017-Nov-03 19:27N 28°58' W 013°32'0 0.0
2017-Nov-03 18:51N 28°58' W 013°32'0 0.0
2017-Nov-03 18:03N 28°58' W 013°32'0 0.0
2017-Nov-03 17:51N 28°58' W 013°32'0 0.0
2017-Nov-03 17:27N 28°58' W 013°32'0 0.0
2017-Nov-03 16:57N 28°58' W 013°32'0 0.0
2017-Nov-03 16:27N 28°58' W 013°32'0 0.0
2017-Nov-03 15:57N 28°58' W 013°32'0 0.0
2017-Nov-03 15:27N 28°58' W 013°32'0 0.0
2017-Nov-03 14:45N 28°58' W 013°32'0 0.0
2017-Nov-03 14:27N 28°58' W 013°32'0 0.0
2017-Nov-03 13:57N 28°58' W 013°32'0 0.0
2017-Nov-03 13:27N 28°58' W 013°32'0 0.0
2017-Nov-03 12:57N 28°58' W 013°32'0 0.0
2017-Nov-03 12:27N 28°58' W 013°32'0 0.0
2017-Nov-03 11:57N 28°58' W 013°32'0 0.0
2017-Nov-03 11:21N 28°58' W 013°32'0 0.0
2017-Nov-03 10:57N 28°58' W 013°32'0 0.0
2017-Nov-03 10:27N 28°58' W 013°32'0 0.0
2017-Nov-03 09:57N 28°58' W 013°32'0 0.0
2017-Nov-03 09:03N 28°58' W 013°32'0 0.0
2017-Nov-03 08:57N 28°58' W 013°32'0 0.0
2017-Nov-03 08:30N 28°58' W 013°32'0 0.0
2017-Nov-03 08:00N 28°58' W 013°32'0 0.0
2017-Nov-03 07:27N 28°58' W 013°32'0 0.0
2017-Nov-03 06:57N 28°58' W 013°32'0 0.0
2017-Nov-03 06:30N 28°58' W 013°32'0 0.0
2017-Nov-03 05:45N 28°58' W 013°32'0 0.0
2017-Nov-03 04:57N 28°58' W 013°32'0 0.0
2017-Nov-03 04:27N 28°58' W 013°32'0 0.0
2017-Nov-03 03:51N 28°58' W 013°32'0 0.0
2017-Nov-03 03:27N 28°58' W 013°32'0 0.0
2017-Nov-03 02:39N 28°58' W 013°32'0 0.0
2017-Nov-03 02:09N 28°58' W 013°32'0 0.0
2017-Nov-03 01:48N 28°58' W 013°32'0 0.0
2017-Nov-03 01:30N 28°58' W 013°32'0 0.0
2017-Nov-03 00:57N 28°58' W 013°32'0 0.0
2017-Nov-03 00:21N 28°58' W 013°32'0 0.0
2017-Nov-02 23:57N 28°58' W 013°32'0 0.0
2017-Nov-02 23:27N 28°58' W 013°32'0 0.0
2017-Nov-02 22:51N 28°58' W 013°32'0 0.0
2017-Nov-02 22:27N 28°58' W 013°32'0 0.0
2017-Nov-02 21:57N 28°58' W 013°32'0 0.0
2017-Nov-02 21:27N 28°58' W 013°32'0 0.0
2017-Nov-02 20:39N 28°58' W 013°32'0 0.0
2017-Nov-02 20:21N 28°58' W 013°32'0 0.0
2017-Nov-02 19:39N 28°58' W 013°32'0 0.0
2017-Nov-02 19:27N 28°58' W 013°32'0 0.0
2017-Nov-02 18:57N 28°58' W 013°32'0 0.0
2017-Nov-02 18:21N 28°58' W 013°32'0 0.0
2017-Nov-02 17:57N 28°58' W 013°32'0 0.0
2017-Nov-02 17:03N 28°58' W 013°32'0 0.0
2017-Nov-02 16:57N 28°58' W 013°32'0 0.0
2017-Nov-02 16:27N 28°58' W 013°32'0 0.0
2017-Nov-02 15:51N 28°58' W 013°32'0 0.0
2017-Nov-02 15:27N 28°58' W 013°32'0 0.0
2017-Nov-02 14:51N 28°58' W 013°32'0 0.0
2017-Nov-02 13:33N 28°58' W 013°32'0 0.1
2017-Nov-02 13:27N 28°58' W 013°32'0 0.0
2017-Nov-02 12:45N 28°58' W 013°32'0 0.0
2017-Nov-02 12:27N 28°58' W 013°32'0 0.0
2017-Nov-02 11:57N 28°58' W 013°32'0 0.0
2017-Nov-02 11:27N 28°58' W 013°32'0 0.0
2017-Nov-02 10:51N 28°58' W 013°32'0 0.0
2017-Nov-02 10:27N 28°58' W 013°32'0 0.0
2017-Nov-02 09:57N 28°58' W 013°32'0 0.0
2017-Nov-02 08:33N 28°58' W 013°32'0 0.0
2017-Nov-02 08:27N 28°58' W 013°32'0 0.0
2017-Nov-02 07:57N 28°58' W 013°32'0 0.0
2017-Nov-02 07:15N 28°58' W 013°32'0 0.0
2017-Nov-02 06:45N 28°58' W 013°32'0 0.0
2017-Nov-02 06:27N 28°58' W 013°32'0 0.0
2017-Nov-02 05:39N 28°58' W 013°32'0 0.0
2017-Nov-02 05:30N 28°58' W 013°32'0 0.0
2017-Nov-02 04:48N 28°58' W 013°32'0 0.0
2017-Nov-02 04:27N 28°58' W 013°32'0 0.0
2017-Nov-02 03:57N 28°58' W 013°32'0 0.0
2017-Nov-02 03:27N 28°58' W 013°32'0 0.0
2017-Nov-02 02:42N 28°58' W 013°32'0 0.0
2017-Nov-02 02:30N 28°58' W 013°32'0 0.0
2017-Nov-02 01:45N 28°58' W 013°32'0 0.0
2017-Nov-02 01:27N 28°58' W 013°32'0 0.0
2017-Nov-02 00:51N 28°58' W 013°32'0 0.0
2017-Nov-02 00:18N 28°58' W 013°32'0 0.0
2017-Nov-01 23:57N 28°58' W 013°32'0 0.0
2017-Nov-01 23:15N 28°58' W 013°32'0 0.0
2017-Nov-01 23:00N 28°58' W 013°32'0 0.0
2017-Nov-01 22:27N 28°58' W 013°32'0 0.0
2017-Nov-01 21:51N 28°58' W 013°32'0 0.0
2017-Nov-01 21:27N 28°58' W 013°32'0 0.0
2017-Nov-01 21:00N 28°58' W 013°32'0 0.0
2017-Nov-01 20:24N 28°58' W 013°32'0 0.0
2017-Nov-01 19:51N 28°58' W 013°32'0 0.0
2017-Nov-01 19:21N 28°58' W 013°32'0 0.0
2017-Nov-01 18:51N 28°58' W 013°32'0 0.0
2017-Nov-01 18:21N 28°58' W 013°32'0 0.0
2017-Oct-31 03:51N 28°58' W 013°32'0 0.0
2017-Oct-31 00:33N 28°58' W 013°32'0 0.0
2017-Oct-31 00:27N 28°58' W 013°32'0 0.0
2017-Oct-30 23:51N 28°58' W 013°32'0 0.0
2017-Oct-30 21:06N 28°58' W 013°32'0 0.0
2017-Oct-30 19:33N 28°58' W 013°32'0 0.0
2017-Oct-30 19:18N 28°58' W 013°32'0 0.0
2017-Oct-29 18:15N 28°58' W 013°32'0 0.0
2017-Oct-29 17:45N 28°58' W 013°32'  
Track history (hours):
 
Tides and Currents Weather Stations Pressure Air Temp Water Temp Dewpoint Dewpoint Depression Visibility Wind Speed Wind Dir Waves Ship Positions

Daniel

Last reported at 2017-Nov-08 16:45 UTC. Time now 2017-Nov-24 02:14 UTC.
Position N 27°50' W 015°14'.
Warning: this ship's position is 15 days out of date.

Length 15 m.

Type: Pleasure craft. MMSI: 244060727.

Date/timePositionNaut miles runAvg speedWind from/ knotsBaromVisibWave heightAir tempDewpointWater temp
2017-Nov-08 16:45N 27°50' W 015°14'2 6.0
2017-Nov-08 16:25N 27°50' W 015°11'3 6.1
2017-Nov-08 15:57N 27°51' W 015°08'3 6.3
2017-Nov-08 15:27N 27°52' W 015°05'3 6.3
2017-Nov-08 14:56N 27°54' W 015°02'3 6.2
2017-Nov-08 14:27N 27°55' W 014°58'3 6.5
2017-Nov-08 13:55N 27°56' W 014°55'3 6.5
2017-Nov-08 13:26N 27°57' W 014°51'3 5.9
2017-Nov-08 12:56N 27°58' W 014°48'3 6.2
2017-Nov-08 12:26N 27°59' W 014°45'3 5.7
2017-Nov-08 11:54N 27°60' W 014°42'3 5.9
2017-Nov-08 11:24N 28°01' W 014°38'  
2017-Nov-04 07:41N 28°48' W 013°27'2 7.2
2017-Nov-04 07:26N 28°50' W 013°27'3 7.1
2017-Nov-04 06:59N 28°53' W 013°29'3 7.1
2017-Nov-04 06:30N 28°56' W 013°31'2 4.8
2017-Nov-04 06:00N 28°58' W 013°32'0 0.1
2017-Nov-04 05:21N 28°58' W 013°32'0 0.0
2017-Nov-04 04:39N 28°58' W 013°32'0 0.0
2017-Nov-04 04:30N 28°58' W 013°32'0 0.0
2017-Nov-04 03:57N 28°58' W 013°32'0 0.0
2017-Nov-04 03:15N 28°58' W 013°32'0 0.0
2017-Nov-04 02:57N 28°58' W 013°32'0 0.0
2017-Nov-04 02:27N 28°58' W 013°32'0 0.0
2017-Nov-04 01:57N 28°58' W 013°32'0 0.0
2017-Nov-04 00:18N 28°58' W 013°32'0 0.0
2017-Nov-03 23:57N 28°58' W 013°32'0 0.0
2017-Nov-03 23:21N 28°58' W 013°32'0 0.0
2017-Nov-03 22:51N 28°58' W 013°32'0 0.0
2017-Nov-03 22:27N 28°58' W 013°32'0 0.0
2017-Nov-03 21:57N 28°58' W 013°32'0 0.0
2017-Nov-03 21:27N 28°58' W 013°32'0 0.0
2017-Nov-03 20:45N 28°58' W 013°32'0 0.0
2017-Nov-03 20:24N 28°58' W 013°32'0 0.0
2017-Nov-03 19:39N 28°58' W 013°32'0 0.0
2017-Nov-03 19:27N 28°58' W 013°32'0 0.0
2017-Nov-03 18:51N 28°58' W 013°32'0 0.0
2017-Nov-03 18:03N 28°58' W 013°32'0 0.0
2017-Nov-03 17:51N 28°58' W 013°32'0 0.0
2017-Nov-03 17:27N 28°58' W 013°32'0 0.0
2017-Nov-03 16:57N 28°58' W 013°32'0 0.0
2017-Nov-03 16:27N 28°58' W 013°32'0 0.0
2017-Nov-03 15:57N 28°58' W 013°32'0 0.0
2017-Nov-03 15:27N 28°58' W 013°32'0 0.0
2017-Nov-03 14:45N 28°58' W 013°32'0 0.0
2017-Nov-03 14:27N 28°58' W 013°32'0 0.0
2017-Nov-03 13:57N 28°58' W 013°32'0 0.0
2017-Nov-03 13:27N 28°58' W 013°32'0 0.0
2017-Nov-03 12:57N 28°58' W 013°32'0 0.0
2017-Nov-03 12:27N 28°58' W 013°32'0 0.0
2017-Nov-03 11:57N 28°58' W 013°32'0 0.0
2017-Nov-03 11:21N 28°58' W 013°32'0 0.0
2017-Nov-03 10:57N 28°58' W 013°32'0 0.0
2017-Nov-03 10:27N 28°58' W 013°32'0 0.0
2017-Nov-03 09:57N 28°58' W 013°32'0 0.0
2017-Nov-03 09:03N 28°58' W 013°32'0 0.0
2017-Nov-03 08:57N 28°58' W 013°32'0 0.0
2017-Nov-03 08:30N 28°58' W 013°32'0 0.0
2017-Nov-03 08:00N 28°58' W 013°32'0 0.0
2017-Nov-03 07:27N 28°58' W 013°32'0 0.0
2017-Nov-03 06:57N 28°58' W 013°32'0 0.0
2017-Nov-03 06:30N 28°58' W 013°32'0 0.0
2017-Nov-03 05:45N 28°58' W 013°32'0 0.0
2017-Nov-03 04:57N 28°58' W 013°32'0 0.0
2017-Nov-03 04:27N 28°58' W 013°32'0 0.0
2017-Nov-03 03:51N 28°58' W 013°32'0 0.0
2017-Nov-03 03:27N 28°58' W 013°32'0 0.0
2017-Nov-03 02:39N 28°58' W 013°32'0 0.0
2017-Nov-03 02:09N 28°58' W 013°32'0 0.0
2017-Nov-03 01:48N 28°58' W 013°32'0 0.0
2017-Nov-03 01:30N 28°58' W 013°32'0 0.0
2017-Nov-03 00:57N 28°58' W 013°32'0 0.0
2017-Nov-03 00:21N 28°58' W 013°32'0 0.0
2017-Nov-02 23:57N 28°58' W 013°32'0 0.0
2017-Nov-02 23:27N 28°58' W 013°32'0 0.0
2017-Nov-02 22:51N 28°58' W 013°32'0 0.0
2017-Nov-02 22:27N 28°58' W 013°32'0 0.0
2017-Nov-02 21:57N 28°58' W 013°32'0 0.0
2017-Nov-02 21:27N 28°58' W 013°32'0 0.0
2017-Nov-02 20:39N 28°58' W 013°32'0 0.0
2017-Nov-02 20:21N 28°58' W 013°32'0 0.0
2017-Nov-02 19:39N 28°58' W 013°32'0 0.0
2017-Nov-02 19:27N 28°58' W 013°32'0 0.0
2017-Nov-02 18:57N 28°58' W 013°32'0 0.0
2017-Nov-02 18:21N 28°58' W 013°32'0 0.0
2017-Nov-02 17:57N 28°58' W 013°32'0 0.0
2017-Nov-02 17:03N 28°58' W 013°32'0 0.0
2017-Nov-02 16:57N 28°58' W 013°32'0 0.0
2017-Nov-02 16:27N 28°58' W 013°32'0 0.0
2017-Nov-02 15:51N 28°58' W 013°32'0 0.0
2017-Nov-02 15:27N 28°58' W 013°32'0 0.0
2017-Nov-02 14:51N 28°58' W 013°32'0 0.0
2017-Nov-02 13:33N 28°58' W 013°32'0 0.1
2017-Nov-02 13:27N 28°58' W 013°32'0 0.0
2017-Nov-02 12:45N 28°58' W 013°32'0 0.0
2017-Nov-02 12:27N 28°58' W 013°32'0 0.0
2017-Nov-02 11:57N 28°58' W 013°32'0 0.0
2017-Nov-02 11:27N 28°58' W 013°32'0 0.0
2017-Nov-02 10:51N 28°58' W 013°32'0 0.0
2017-Nov-02 10:27N 28°58' W 013°32'0 0.0
2017-Nov-02 09:57N 28°58' W 013°32'0 0.0
2017-Nov-02 08:33N 28°58' W 013°32'0 0.0
2017-Nov-02 08:27N 28°58' W 013°32'0 0.0
2017-Nov-02 07:57N 28°58' W 013°32'0 0.0
2017-Nov-02 07:15N 28°58' W 013°32'0 0.0
2017-Nov-02 06:45N 28°58' W 013°32'0 0.0
2017-Nov-02 06:27N 28°58' W 013°32'0 0.0
2017-Nov-02 05:39N 28°58' W 013°32'0 0.0
2017-Nov-02 05:30N 28°58' W 013°32'0 0.0
2017-Nov-02 04:48N 28°58' W 013°32'0 0.0
2017-Nov-02 04:27N 28°58' W 013°32'0 0.0
2017-Nov-02 03:57N 28°58' W 013°32'0 0.0
2017-Nov-02 03:27N 28°58' W 013°32'0 0.0
2017-Nov-02 02:42N 28°58' W 013°32'0 0.0
2017-Nov-02 02:30N 28°58' W 013°32'0 0.0
2017-Nov-02 01:45N 28°58' W 013°32'0 0.0
2017-Nov-02 01:27N 28°58' W 013°32'0 0.0
2017-Nov-02 00:51N 28°58' W 013°32'0 0.0
2017-Nov-02 00:18N 28°58' W 013°32'0 0.0
2017-Nov-01 23:57N 28°58' W 013°32'0 0.0
2017-Nov-01 23:15N 28°58' W 013°32'0 0.0
2017-Nov-01 23:00N 28°58' W 013°32'0 0.0
2017-Nov-01 22:27N 28°58' W 013°32'0 0.0
2017-Nov-01 21:51N 28°58' W 013°32'0 0.0
2017-Nov-01 21:27N 28°58' W 013°32'0 0.0
2017-Nov-01 21:00N 28°58' W 013°32'0 0.0
2017-Nov-01 20:24N 28°58' W 013°32'0 0.0
2017-Nov-01 19:51N 28°58' W 013°32'0 0.0
2017-Nov-01 19:21N 28°58' W 013°32'0 0.0
2017-Nov-01 18:51N 28°58' W 013°32'0 0.0
2017-Nov-01 18:21N 28°58' W 013°32'0 0.0
2017-Oct-31 03:51N 28°58' W 013°32'0 0.0
2017-Oct-31 00:33N 28°58' W 013°32'0 0.0
2017-Oct-31 00:27N 28°58' W 013°32'0 0.0
2017-Oct-30 23:51N 28°58' W 013°32'0 0.0
2017-Oct-30 21:06N 28°58' W 013°32'0 0.0
2017-Oct-30 19:33N 28°58' W 013°32'0 0.0
2017-Oct-30 19:18N 28°58' W 013°32'0 0.0
2017-Oct-29 18:15N 28°58' W 013°32'0 0.0
2017-Oct-29 17:45N 28°58' W 013°32'  

Dump ship's entire track history